createdAt,value
2023-01-01T00:01:40.541Z,99105.03
2023-01-01T00:04:12.558Z,99110.41
2023-01-01T00:06:41.818Z,99101.84
2023-01-01T00:09:27.016Z,99096.94
2023-01-01T00:11:54.764Z,99102.13
2023-01-01T00:14:22.534Z,99104.00
2023-01-01T00:16:50.428Z,99094.53
2023-01-01T00:19:18.380Z,99105.09
2023-01-01T00:21:47.459Z,99107.03
2023-01-01T00:24:15.655Z,99103.31
2023-01-01T00:26:43.359Z,99106.41
2023-01-01T00:29:11.492Z,99113.25
2023-01-01T00:31:39.252Z,99122.09
2023-01-01T00:34:07.069Z,99113.31
2023-01-01T00:36:34.720Z,99102.91
2023-01-01T00:39:04.628Z,99101.34
2023-01-01T00:41:32.246Z,99071.19
2023-01-01T00:44:00.205Z,99093.28
2023-01-01T00:46:27.964Z,99104.00
2023-01-01T00:48:55.604Z,99098.31
2023-01-01T00:51:23.226Z,99087.06
2023-01-01T00:53:51.112Z,99100.81
2023-01-01T00:56:20.047Z,99090.94
2023-01-01T00:59:01.153Z,99091.03
2023-01-01T01:01:29.792Z,99089.69
2023-01-01T01:03:57.484Z,99088.00
2023-01-01T01:06:25.243Z,99088.91
2023-01-01T01:08:52.929Z,99088.00
2023-01-01T01:11:23.716Z,99086.75
2023-01-01T01:13:53.324Z,99083.66
2023-01-01T01:16:23.687Z,99089.00
2023-01-01T01:18:52.562Z,99097.78
2023-01-01T01:21:22.662Z,99090.63
2023-01-01T01:23:50.620Z,99094.63
2023-01-01T01:26:19.862Z,99093.63
2023-01-01T01:28:50.199Z,99078.94
2023-01-01T01:31:18.277Z,99077.91
2023-01-01T01:33:46.993Z,99077.75
2023-01-01T01:36:15.795Z,99092.59
2023-01-01T01:38:43.770Z,99087.16
2023-01-01T01:41:26.126Z,99091.59
2023-01-01T01:43:58.370Z,99092.28
2023-01-01T01:46:30.565Z,99087.47
2023-01-01T01:49:02.140Z,99076.91
2023-01-01T01:51:34.030Z,99075.81
2023-01-01T01:54:04.331Z,99087.69
2023-01-01T01:56:37.222Z,99081.56
2023-01-01T01:59:06.834Z,99081.16
2023-01-01T02:01:34.547Z,99084.97
2023-01-01T02:04:03.086Z,99073.63
2023-01-01T02:06:32.663Z,99083.28
2023-01-01T02:09:03.302Z,99092.75
2023-01-01T02:11:31.352Z,99094.47
2023-01-01T02:14:00.341Z,99087.38
2023-01-01T02:16:35.026Z,99088.31
2023-01-01T02:19:09.009Z,99089.09
2023-01-01T02:21:40.731Z,99102.94
2023-01-01T02:24:24.982Z,99111.41
2023-01-01T02:26:56.764Z,99093.22
2023-01-01T02:29:31.724Z,99111.56
2023-01-01T02:32:02.993Z,99119.88
2023-01-01T02:34:34.961Z,99121.13
2023-01-01T02:37:04.459Z,99117.91
2023-01-01T02:39:35.762Z,99115.34
2023-01-01T02:42:04.525Z,99125.56
2023-01-01T02:44:36.464Z,99114.03
2023-01-01T02:47:08.807Z,99129.88
2023-01-01T02:49:39.516Z,99121.16
2023-01-01T02:52:11.045Z,99123.34
2023-01-01T02:54:44.852Z,99124.97
2023-01-01T02:57:16.986Z,99127.69
2023-01-01T03:00:13.731Z,99131.19
2023-01-01T03:02:51.554Z,99129.47
2023-01-01T03:05:24.553Z,99128.63
2023-01-01T03:08:01.967Z,99131.41
2023-01-01T03:10:36.060Z,99128.84
2023-01-01T03:13:09.093Z,99118.59
2023-01-01T03:15:42.491Z,99124.56
2023-01-01T03:18:15.157Z,99127.59
2023-01-01T03:20:46.895Z,99132.94
2023-01-01T03:23:20.110Z,99140.72
2023-01-01T03:25:51.125Z,99136.91
2023-01-01T03:28:22.595Z,99140.94
2023-01-01T03:30:53.533Z,99146.66
2023-01-01T03:33:25.190Z,99141.22
2023-01-01T03:35:55.613Z,99137.72
2023-01-01T03:38:26.929Z,99141.44
2023-01-01T03:40:58.908Z,99140.44
2023-01-01T03:43:35.207Z,99148.59
2023-01-01T03:46:05.351Z,99142.31
2023-01-01T03:49:00.222Z,99142.38
2023-01-01T03:51:38.923Z,99137.88
2023-01-01T03:54:10.008Z,99132.91
2023-01-01T03:56:40.888Z,99137.09
2023-01-01T03:59:14.075Z,99133.03
2023-01-01T04:01:46.075Z,99137.09
2023-01-01T04:04:14.227Z,99120.63
2023-01-01T04:06:41.849Z,99135.75
2023-01-01T04:09:13.164Z,99129.25
2023-01-01T04:12:00.730Z,99149.81
2023-01-01T04:14:29.521Z,99150.75
2023-01-01T04:16:59.000Z,99157.50
2023-01-01T04:19:27.067Z,99151.81
2023-01-01T04:21:54.650Z,99160.28
2023-01-01T04:24:23.371Z,99159.50
2023-01-01T04:26:51.275Z,99164.88
2023-01-01T04:29:19.333Z,99175.41
2023-01-01T04:31:47.692Z,99161.59
2023-01-01T04:34:17.099Z,99165.72
2023-01-01T04:36:44.761Z,99163.16
2023-01-01T04:39:12.540Z,99161.38
2023-01-01T04:41:40.180Z,99156.16
2023-01-01T04:44:07.910Z,99159.22
2023-01-01T04:46:35.618Z,99167.56
2023-01-01T04:49:03.185Z,99166.19
2023-01-01T04:51:32.098Z,99167.03
2023-01-01T04:54:00.149Z,99168.59
2023-01-01T04:56:27.774Z,99172.81
2023-01-01T04:58:57.111Z,99157.81
2023-01-01T05:01:26.712Z,99162.53
2023-01-01T05:03:54.749Z,99165.34
2023-01-01T05:06:22.958Z,99172.97
2023-01-01T05:08:54.503Z,99168.53
2023-01-01T05:11:23.579Z,99181.97
2023-01-01T05:13:53.489Z,99179.03
2023-01-01T05:16:24.411Z,99180.16
2023-01-01T05:18:52.449Z,99181.88
2023-01-01T05:21:21.785Z,99186.25
2023-01-01T05:23:49.713Z,99180.47
2023-01-01T05:26:20.758Z,99182.97
2023-01-01T05:28:49.087Z,99178.03
2023-01-01T05:31:18.729Z,99183.03
2023-01-01T05:33:46.476Z,99189.69
2023-01-01T05:36:17.100Z,99187.03
2023-01-01T05:38:45.017Z,99194.03
2023-01-01T05:41:15.564Z,99191.91
2023-01-01T05:43:44.761Z,99188.25
2023-01-01T05:46:13.944Z,99184.47
2023-01-01T05:48:41.625Z,99182.84
2023-01-01T05:51:10.793Z,99191.47
2023-01-01T05:53:38.624Z,99188.81
2023-01-01T05:56:07.077Z,99194.25
2023-01-01T05:58:35.998Z,99196.88
2023-01-01T06:01:09.852Z,99200.09
2023-01-01T06:03:37.889Z,99194.25
2023-01-01T06:06:07.139Z,99206.31
2023-01-01T06:08:35.161Z,99212.09
2023-01-01T06:11:04.055Z,99212.38
2023-01-01T06:13:32.038Z,99219.22
2023-01-01T06:16:01.237Z,99213.94
2023-01-01T06:18:32.246Z,99215.72
2023-01-01T06:21:05.439Z,99222.94
2023-01-01T06:23:33.264Z,99233.72
2023-01-01T06:26:06.242Z,99225.22
2023-01-01T06:28:33.959Z,99231.22
2023-01-01T06:31:02.156Z,99242.78
2023-01-01T06:33:31.854Z,99247.75
2023-01-01T06:36:00.042Z,99247.47
2023-01-01T06:38:27.630Z,99256.47
2023-01-01T06:40:59.462Z,99255.25
2023-01-01T06:43:27.554Z,99234.56
2023-01-01T06:46:02.845Z,99256.41
2023-01-01T06:48:33.157Z,99260.97
2023-01-01T06:51:06.718Z,99268.75
2023-01-01T06:53:34.367Z,99266.81
2023-01-01T06:56:01.984Z,99263.81
2023-01-01T06:58:29.672Z,99263.38
2023-01-01T07:01:08.375Z,99267.59
2023-01-01T07:03:38.563Z,99267.88
2023-01-01T07:06:07.168Z,99263.53
2023-01-01T07:08:35.070Z,99269.44
2023-01-01T07:11:03.143Z,99270.78
2023-01-01T07:13:31.681Z,99269.66
2023-01-01T07:15:59.530Z,99276.94
2023-01-01T07:18:27.227Z,99296.91
2023-01-01T07:20:57.624Z,99296.97
2023-01-01T07:23:25.935Z,99304.53
2023-01-01T07:25:54.441Z,99305.81
2023-01-01T07:28:22.870Z,99316.59
2023-01-01T07:30:50.806Z,99315.16
2023-01-01T07:33:19.895Z,99317.06
2023-01-01T07:35:47.504Z,99326.50
2023-01-01T07:38:17.036Z,99329.06
2023-01-01T07:40:44.664Z,99335.91
2023-01-01T07:43:14.139Z,99335.25
2023-01-01T07:45:41.951Z,99333.56
2023-01-01T07:48:12.143Z,99346.81
2023-01-01T07:50:39.752Z,99321.16
2023-01-01T07:53:07.497Z,99324.06
2023-01-01T07:55:36.444Z,99323.06
2023-01-01T07:58:04.211Z,99328.47
2023-01-01T08:00:31.875Z,99319.75
2023-01-01T08:02:59.666Z,99334.28
2023-01-01T08:05:27.495Z,99334.22
2023-01-01T08:07:56.048Z,99326.50
2023-01-01T08:10:23.822Z,99339.78
2023-01-01T08:12:52.786Z,99332.34
2023-01-01T08:15:20.444Z,99339.41
2023-01-01T08:17:48.052Z,99342.00
2023-01-01T08:20:15.888Z,99337.50
2023-01-01T08:22:43.575Z,99333.22
2023-01-01T08:25:11.122Z,99345.22
2023-01-01T08:27:39.115Z,99348.84
2023-01-01T08:30:09.851Z,99344.28
2023-01-01T08:32:37.459Z,99342.22
2023-01-01T08:35:05.759Z,99352.59
2023-01-01T08:37:33.525Z,99354.69
2023-01-01T08:40:01.229Z,99361.03
2023-01-01T08:42:28.889Z,99358.63
2023-01-01T08:44:56.557Z,99353.53
2023-01-01T08:47:27.300Z,99363.13
2023-01-01T08:49:55.104Z,99364.41
2023-01-01T08:52:23.165Z,99366.47
2023-01-01T08:54:50.763Z,99376.19
2023-01-01T08:57:18.432Z,99381.97
2023-01-01T08:59:46.063Z,99389.97
2023-01-01T09:02:13.987Z,99383.38
2023-01-01T09:04:43.286Z,99402.25
2023-01-01T09:07:10.944Z,99407.53
2023-01-01T09:09:38.544Z,99415.19
2023-01-01T09:12:09.221Z,99408.47
2023-01-01T09:14:36.919Z,99408.69
2023-01-01T09:17:04.577Z,99412.91
2023-01-01T09:19:32.299Z,99409.34
2023-01-01T09:22:01.252Z,99416.94
2023-01-01T09:24:28.855Z,99415.16
2023-01-01T09:26:56.444Z,99411.00
2023-01-01T09:29:24.065Z,99414.31
2023-01-01T09:31:51.773Z,99407.81
2023-01-01T09:34:19.419Z,99418.38
2023-01-01T09:36:47.630Z,99416.03
2023-01-01T09:39:17.337Z,99421.44
2023-01-01T09:41:55.517Z,99421.59
2023-01-01T09:44:36.900Z,99423.03
2023-01-01T09:47:05.639Z,99414.94
2023-01-01T09:49:35.902Z,99406.00
2023-01-01T09:52:05.599Z,99415.31
2023-01-01T09:54:35.592Z,99417.97
2023-01-01T09:57:04.936Z,99418.03
2023-01-01T09:59:32.892Z,99425.50
2023-01-01T10:02:05.805Z,99419.38
2023-01-01T10:04:45.500Z,99420.38
2023-01-01T10:07:19.454Z,99425.59
2023-01-01T10:09:53.404Z,99429.44
2023-01-01T10:12:24.201Z,99422.84
2023-01-01T10:15:00.570Z,99433.34
2023-01-01T10:17:34.061Z,99428.13
2023-01-01T10:20:04.696Z,99427.28
2023-01-01T10:22:36.182Z,99416.84
2023-01-01T10:25:15.885Z,99423.06
2023-01-01T10:27:47.069Z,99421.41
2023-01-01T10:30:17.087Z,99421.34
2023-01-01T10:32:48.285Z,99412.09
2023-01-01T10:35:17.609Z,99410.69
2023-01-01T10:37:46.044Z,99411.00
2023-01-01T10:40:20.568Z,99404.47
2023-01-01T10:42:50.200Z,99402.75
2023-01-01T10:45:20.719Z,99391.78
2023-01-01T10:48:14.347Z,99405.72
2023-01-01T10:50:43.729Z,99402.13
2023-01-01T10:53:22.367Z,99411.72
2023-01-01T10:55:52.126Z,99410.22
2023-01-01T10:58:35.753Z,99413.81
2023-01-01T11:01:04.988Z,99413.56
2023-01-01T11:03:33.525Z,99403.84
2023-01-01T11:06:14.914Z,99396.22
2023-01-01T11:08:48.419Z,99397.84
2023-01-01T11:11:23.563Z,99400.97
2023-01-01T11:13:52.607Z,99394.41
2023-01-01T11:16:20.352Z,99397.06
2023-01-01T11:18:48.512Z,99392.41
2023-01-01T11:21:22.029Z,99390.69
2023-01-01T11:24:18.862Z,99380.41
2023-01-01T11:26:54.208Z,99383.91
2023-01-01T11:29:26.986Z,99383.75
2023-01-01T11:31:54.960Z,99359.97
2023-01-01T11:34:29.004Z,99355.22
2023-01-01T11:37:09.344Z,99360.59
2023-01-01T11:39:38.005Z,99344.97
2023-01-01T11:42:08.485Z,99348.56
2023-01-01T11:44:39.205Z,99349.16
2023-01-01T11:47:08.039Z,99336.94
2023-01-01T11:49:35.976Z,99334.72
2023-01-01T11:52:33.838Z,99328.81
2023-01-01T11:55:04.834Z,99329.59
2023-01-01T12:00:26.255Z,99346.69
2023-01-01T12:02:58.721Z,99347.00
2023-01-01T12:05:29.273Z,99358.31
2023-01-01T12:07:59.358Z,99359.06
2023-01-01T12:10:28.767Z,99354.38
2023-01-01T12:13:02.314Z,99351.38
2023-01-01T12:15:36.864Z,99354.06
2023-01-01T12:18:07.633Z,99354.06
2023-01-01T12:20:37.949Z,99352.84
2023-01-01T12:23:05.734Z,99344.31
2023-01-01T12:25:37.055Z,99314.09
2023-01-01T12:28:16.491Z,99339.34
2023-01-01T12:30:50.683Z,99348.81
2023-01-01T12:33:30.641Z,99341.97
2023-01-01T12:36:07.756Z,99350.28
2023-01-01T12:38:54.341Z,99344.56
2023-01-01T12:41:29.142Z,99334.00
2023-01-01T12:44:02.477Z,99337.59
2023-01-01T12:46:44.027Z,99341.19
2023-01-01T12:49:25.304Z,99351.53
2023-01-01T12:52:03.829Z,99348.41
2023-01-01T12:54:58.963Z,99342.72
2023-01-01T12:57:31.143Z,99344.16
2023-01-01T13:00:02.473Z,99334.84
2023-01-01T13:02:32.055Z,99345.78
2023-01-01T13:05:04.442Z,99344.78
2023-01-01T13:07:33.880Z,99336.47
2023-01-01T13:10:06.583Z,99342.09
2023-01-01T13:12:37.838Z,99337.66
2023-01-01T13:15:35.253Z,99331.34
2023-01-01T13:18:06.293Z,99343.97
2023-01-01T13:20:35.295Z,99333.69
2023-01-01T13:23:02.935Z,99333.53
2023-01-01T13:25:30.595Z,99345.97
2023-01-01T13:28:06.266Z,99349.03
2023-01-01T13:30:49.877Z,99338.19
2023-01-01T13:33:26.582Z,99345.22
2023-01-01T13:36:28.088Z,99349.66
2023-01-01T13:38:56.675Z,99354.78
2023-01-01T13:41:31.767Z,99359.31
2023-01-01T13:44:13.776Z,99353.00
2023-01-01T13:46:52.117Z,99349.50
2023-01-01T13:49:27.908Z,99345.75
2023-01-01T13:52:05.970Z,99338.22
2023-01-01T13:54:57.986Z,99329.97
2023-01-01T13:58:01.297Z,99344.59
2023-01-01T14:00:34.050Z,99323.97
2023-01-01T14:03:03.148Z,99341.72
2023-01-01T14:05:34.004Z,99334.72
2023-01-01T14:08:01.629Z,99344.91
2023-01-01T14:10:31.392Z,99335.16
2023-01-01T14:13:16.063Z,99335.34
2023-01-01T14:15:53.187Z,99333.53
2023-01-01T14:18:22.096Z,99337.97
2023-01-01T14:20:52.419Z,99343.66
2023-01-01T14:23:23.621Z,99341.25
2023-01-01T14:25:51.460Z,99346.00
2023-01-01T14:28:21.209Z,99352.53
2023-01-01T14:30:48.979Z,99352.22
2023-01-01T14:33:24.534Z,99354.09
2023-01-01T14:35:54.535Z,99348.09
2023-01-01T14:38:27.143Z,99346.78
2023-01-01T14:41:03.543Z,99346.22
2023-01-01T14:43:31.350Z,99343.97
2023-01-01T14:45:58.990Z,99340.38
2023-01-01T14:48:26.648Z,99341.09
2023-01-01T14:50:55.760Z,99348.09
2023-01-01T14:53:29.637Z,99335.97
2023-01-01T14:55:57.419Z,99345.53
2023-01-01T14:58:26.683Z,99340.06
2023-01-01T15:00:54.551Z,99333.47
2023-01-01T15:03:23.617Z,99347.25
2023-01-01T15:06:00.591Z,99339.69
2023-01-01T15:08:28.220Z,99334.78
2023-01-01T15:10:56.460Z,99338.44
2023-01-01T15:13:25.554Z,99338.34
2023-01-01T15:15:54.555Z,99335.31
2023-01-01T15:18:37.137Z,99333.47
2023-01-01T15:21:10.911Z,99335.00
2023-01-01T15:23:38.627Z,99327.78
2023-01-01T15:26:09.874Z,99329.47
2023-01-01T15:28:39.238Z,99313.84
2023-01-01T15:31:07.076Z,99310.41
2023-01-01T15:33:34.783Z,99317.94
2023-01-01T15:36:03.877Z,99310.09
2023-01-01T15:38:35.284Z,99301.06
2023-01-01T15:41:26.667Z,99318.34
2023-01-01T15:44:08.034Z,99316.38
2023-01-01T15:46:35.662Z,99323.00
2023-01-01T15:49:03.622Z,99325.03
2023-01-01T15:51:31.287Z,99332.31
2023-01-01T15:54:01.579Z,99323.25
2023-01-01T15:56:31.371Z,99329.94
2023-01-01T15:59:08.411Z,99335.16
2023-01-01T16:01:38.578Z,99327.44
2023-01-01T16:04:10.108Z,99331.31
2023-01-01T16:06:44.194Z,99336.84
2023-01-01T16:09:14.217Z,99323.25
2023-01-01T16:11:41.809Z,99333.88
2023-01-01T16:14:09.677Z,99337.16
2023-01-01T16:16:38.778Z,99330.31
2023-01-01T16:19:06.668Z,99343.31
2023-01-01T16:21:34.950Z,99327.38
2023-01-01T16:24:02.541Z,99319.34
2023-01-01T16:26:31.441Z,99317.09
2023-01-01T16:28:59.029Z,99295.06
2023-01-01T16:31:28.768Z,99292.75
2023-01-01T16:33:57.722Z,99289.63
2023-01-01T16:36:27.312Z,99294.47
2023-01-01T16:38:54.999Z,99289.38
2023-01-01T16:41:22.978Z,99272.91
2023-01-01T16:43:52.015Z,99261.47
2023-01-01T16:46:19.635Z,99261.63
2023-01-01T16:48:47.247Z,99267.69
2023-01-01T16:51:19.041Z,99264.25
2023-01-01T16:53:46.793Z,99264.50
2023-01-01T16:56:14.901Z,99253.84
2023-01-01T16:58:54.060Z,99259.34
2023-01-01T17:01:27.383Z,99257.50
2023-01-01T17:03:55.223Z,99261.78
2023-01-01T17:06:22.832Z,99265.34
2023-01-01T17:08:50.400Z,99256.47
2023-01-01T17:11:18.960Z,99256.34
2023-01-01T17:13:48.192Z,99256.25
2023-01-01T17:16:23.267Z,99256.41
2023-01-01T17:21:43.700Z,99249.25
2023-01-01T17:24:11.324Z,99247.31
2023-01-01T17:26:38.980Z,99250.81
2023-01-01T17:29:07.464Z,99252.38
2023-01-01T17:31:35.233Z,99241.97
2023-01-01T17:34:04.330Z,99239.09
2023-01-01T17:36:31.946Z,99248.03
2023-01-01T17:38:59.552Z,99225.16
2023-01-01T17:41:27.225Z,99245.75
2023-01-01T17:43:54.790Z,99238.69
2023-01-01T17:46:24.012Z,99224.47
2023-01-01T17:48:52.545Z,99218.78
2023-01-01T17:51:21.925Z,99218.00
2023-01-01T17:53:50.046Z,99201.44
2023-01-01T17:56:19.407Z,99202.44
2023-01-01T17:58:47.803Z,99205.94
2023-01-01T18:01:28.189Z,99218.47
2023-01-01T18:03:57.300Z,99209.59
2023-01-01T18:06:26.681Z,99209.59
2023-01-01T18:08:57.889Z,99177.03
2023-01-01T18:11:26.046Z,99202.75
2023-01-01T18:13:53.709Z,99208.75
2023-01-01T18:16:21.413Z,99211.31
2023-01-01T18:18:49.078Z,99215.03
2023-01-01T18:21:21.833Z,99214.13
2023-01-01T18:23:52.478Z,99200.13
2023-01-01T18:26:20.753Z,99193.91
2023-01-01T18:28:52.364Z,99186.97
2023-01-01T18:31:20.292Z,99196.63
2023-01-01T18:33:48.341Z,99201.97
2023-01-01T18:36:18.430Z,99188.75
2023-01-01T18:38:48.693Z,99188.53
2023-01-01T18:41:29.291Z,99192.66
2023-01-01T18:43:58.350Z,99183.63
2023-01-01T18:46:25.961Z,99192.81
2023-01-01T18:48:58.866Z,99195.69
2023-01-01T18:51:27.104Z,99186.91
2023-01-01T18:53:56.950Z,99179.03
2023-01-01T18:56:26.353Z,99180.38
2023-01-01T18:58:56.042Z,99191.34
2023-01-01T19:01:25.201Z,99181.69
2023-01-01T19:03:56.010Z,99179.19
2023-01-01T19:06:27.635Z,99168.63
2023-01-01T19:09:03.814Z,99173.06
2023-01-01T19:11:33.061Z,99158.38
2023-01-01T19:14:05.461Z,99159.22
2023-01-01T19:16:33.188Z,99159.13
2023-01-01T19:19:10.220Z,99152.75
2023-01-01T19:21:37.853Z,99149.75
2023-01-01T19:24:13.628Z,99145.47
2023-01-01T19:26:42.712Z,99152.53
2023-01-01T19:29:14.877Z,99162.03
2023-01-01T19:31:42.610Z,99151.38
2023-01-01T19:34:11.030Z,99132.00
2023-01-01T19:36:38.671Z,99136.84
2023-01-01T19:39:06.368Z,99138.22
2023-01-01T19:41:34.370Z,99121.22
2023-01-01T19:44:07.238Z,99133.66
2023-01-01T19:46:37.537Z,99146.25
2023-01-01T19:49:05.333Z,99140.34
2023-01-01T19:51:32.915Z,99124.22
2023-01-01T19:54:00.617Z,99142.66
2023-01-01T19:56:28.242Z,99139.63
2023-01-01T19:58:55.904Z,99132.94
2023-01-01T20:01:24.936Z,99128.81
2023-01-01T20:03:55.347Z,99126.56
2023-01-01T20:06:24.247Z,99129.53
2023-01-01T20:08:52.071Z,99134.81
2023-01-01T20:11:20.632Z,99127.13
2023-01-01T20:13:48.487Z,99135.97
2023-01-01T20:16:16.126Z,99130.94
2023-01-01T20:18:45.652Z,99116.84
2023-01-01T20:21:31.050Z,99117.78
2023-01-01T20:23:58.897Z,99119.56
2023-01-01T20:26:26.550Z,99103.88
2023-01-01T20:29:11.960Z,99111.56
2023-01-01T20:31:39.594Z,99120.28
2023-01-01T20:34:08.606Z,99136.84
2023-01-01T20:36:54.077Z,99140.25
2023-01-01T20:39:22.479Z,99132.09
2023-01-01T20:41:50.148Z,99131.31
2023-01-01T20:44:17.945Z,99128.97
2023-01-01T20:46:47.896Z,99122.47
2023-01-01T20:49:17.933Z,99128.81
2023-01-01T20:51:45.713Z,99128.38
2023-01-01T20:54:13.351Z,99131.00
2023-01-01T20:56:40.926Z,99131.41
2023-01-01T20:59:33.622Z,99127.44
2023-01-01T21:01:56.511Z,99138.53
2023-01-01T21:04:25.507Z,99130.78
2023-01-01T21:06:53.228Z,99129.25
2023-01-01T21:09:22.785Z,99134.13
2023-01-01T21:11:50.405Z,99133.63
2023-01-01T21:14:18.592Z,99129.34
2023-01-01T21:16:46.404Z,99121.41
2023-01-01T21:19:14.110Z,99124.78
2023-01-01T21:21:46.049Z,99127.28
2023-01-01T21:24:22.560Z,99126.03
2023-01-01T21:26:51.496Z,99134.97
2023-01-01T21:29:21.152Z,99135.81
2023-01-01T21:31:52.158Z,99139.00
2023-01-01T21:34:31.609Z,99132.25
2023-01-01T21:37:03.217Z,99139.56
2023-01-01T21:39:32.072Z,99129.13
2023-01-01T21:42:15.598Z,99127.19
2023-01-01T21:44:43.111Z,99129.59
2023-01-01T21:47:18.587Z,99124.16
2023-01-01T21:49:46.101Z,99127.66
2023-01-01T21:52:19.916Z,99123.38
2023-01-01T21:54:48.913Z,99125.19
2023-01-01T21:57:19.805Z,99120.44
2023-01-01T21:59:48.079Z,99121.44
2023-01-01T22:02:33.362Z,99115.53
2023-01-01T22:05:02.966Z,99109.16
2023-01-01T22:10:24.951Z,99116.63
2023-01-01T22:12:57.040Z,99119.66
2023-01-01T22:15:29.811Z,99112.50
2023-01-01T22:18:22.835Z,99115.97
2023-01-01T22:20:50.584Z,99122.53
2023-01-01T22:23:27.467Z,99125.88
2023-01-01T22:25:55.046Z,99116.06
2023-01-01T22:28:24.504Z,99132.94
2023-01-01T22:30:54.856Z,99129.69
2023-01-01T22:33:27.738Z,99132.72
2023-01-01T22:35:56.350Z,99134.66
2023-01-01T22:38:31.214Z,99134.81
2023-01-01T22:40:58.902Z,99128.66
2023-01-01T22:43:28.830Z,99119.97
2023-01-01T22:45:56.490Z,99132.69
2023-01-01T22:48:27.130Z,99127.56
2023-01-01T22:50:55.071Z,99136.91
2023-01-01T22:53:22.622Z,99135.97
2023-01-01T22:55:51.550Z,99129.22
2023-01-01T22:58:19.216Z,99122.59
2023-01-01T23:00:46.807Z,99132.53
2023-01-01T23:03:14.452Z,99134.94
2023-01-01T23:05:42.157Z,99134.56
2023-01-01T23:08:09.717Z,99136.97
2023-01-01T23:10:37.563Z,99134.19
2023-01-01T23:13:20.440Z,99130.75
2023-01-01T23:16:03.175Z,99121.41
2023-01-01T23:18:32.390Z,99131.22
2023-01-01T23:21:01.267Z,99121.25
2023-01-01T23:23:30.179Z,99115.97
2023-01-01T23:25:58.639Z,99117.91
2023-01-01T23:28:28.496Z,99126.47
2023-01-01T23:31:01.547Z,99128.00
2023-01-01T23:33:30.080Z,99125.75
2023-01-01T23:35:58.084Z,99126.94
2023-01-01T23:38:26.316Z,99125.31
2023-01-01T23:40:54.017Z,99122.38
2023-01-01T23:43:21.894Z,99109.22
2023-01-01T23:45:51.664Z,99109.59
2023-01-01T23:48:19.998Z,99108.50
2023-01-01T23:50:48.320Z,99098.09
2023-01-01T23:53:16.290Z,99095.53
2023-01-01T23:55:44.030Z,99096.47
2023-01-01T23:58:11.786Z,99092.41
